Flight Track Log - Related Links

Times and Time Zones

All times are in EDT time to prevent confusion due to time zone crossing. See the KAL61 flight status page for this flight to view local times or setup timezone preferences in your user account.

Time Position Orientation Groundspeed Altitude Reporting Facility
EDT Latitude Longitude Course Direction KTS MPH feet Rate Location/Type
Wed 10:27:30 PM 33.9440 -118.4600 264° West 1,600  Level FlightAware ADS-B
Wed 10:28:00 PM 33.9330 -118.4900 246° West 206 237 2,700 1,966 Climbing FlightAware ADS-B
Wed 10:28:28 PM 33.9120 -118.5110 220° Southwest 214 246 3,500 1,333 Climbing FlightAware ADS-B
Wed 10:28:54 PM 33.8890 -118.5270 210° Southwest 248 285 3,900 1,050 Climbing FlightAware ADS-B
Wed 10:29:08 PM 33.8710 -118.5260 177° South 267 307 4,200 1,429 Climbing FlightAware ADS-B
Wed 10:29:36 PM 33.8330 -118.5190 171° South 290 334 4,900 1,895 Climbing FlightAware ADS-B
Wed 10:30:05 PM 33.7980 -118.5110 169° South 293 337 6,000 1,950 Climbing FlightAware ADS-B
Wed 10:30:16 PM 33.7800 -118.5080 172° South 301 346 6,200 1,333 Climbing FlightAware ADS-B
Wed 10:30:41 PM 33.7450 -118.5010 171° South 321 369 6,800 1,889 Climbing FlightAware ADS-B
Wed 10:31:10 PM 33.7020 -118.4930 171° South 326 375 7,900 2,400 Climbing FlightAware ADS-B
Wed 10:31:36 PM 33.6610 -118.4850 171° South 329 379 9,000 2,286 Climbing FlightAware ADS-B
Wed 10:31:52 PM 33.6400 -118.4700 149° Southeast 333 383 9,500 2,143 Climbing FlightAware ADS-B
Wed 10:32:04 PM 33.6280 -118.4530 130° Southeast 336 387 10,000 2,250 Climbing FlightAware ADS-B
Wed 10:32:16 PM 33.6210 -118.4330 113° Southeast 338 389 10,400 1,552 Climbing FlightAware ADS-B
Wed 10:33:02 PM 33.6040 -118.3470 103° East 363 418 11,500 1,714 Climbing FlightAware ADS-B
Wed 10:33:40 PM 33.5880 -118.2690 104° East 376 433 12,800 2,071 Climbing FlightAware ADS-B
Wed 10:34:26 PM 33.5690 -118.1750 104° East 386 444 14,400 2,163 Climbing FlightAware ADS-B
Wed 10:35:06 PM 33.5510 -118.0910 104° East 389 448 15,900 1,786 Climbing FlightAware ADS-B
Wed 10:35:50 PM 33.5260 -118.0020 109° East 401 461 16,900 1,500 Climbing FlightAware ADS-B
Wed 10:36:30 PM 33.4960 -117.9180 113° Southeast 409 471 18,000 1,650 Climbing FlightAware ADS-B
Wed 10:37:10 PM 33.4660 -117.8340 113° Southeast 413 475 19,100 1,765 Climbing FlightAware ADS-B
Wed 10:37:55 PM 33.4320 -117.7410 114° Southeast 415 478 20,500 1,568 Climbing FlightAware ADS-B
Wed 10:38:38 PM 33.3990 -117.6480 113° Southeast 427 491 21,400 1,291 Climbing FlightAware ADS-B
Wed 10:39:14 PM 33.3700 -117.5700 114° Southeast 433 498 22,200 1,437 Climbing FlightAware ADS-B
Wed 10:39:49 PM 33.3420 -117.4920 113° Southeast 439 505 23,100 1,425 Climbing FlightAware ADS-B
Wed 10:40:34 PM 33.3040 -117.3900 114° Southeast 446 513 24,100 1,326 Climbing FlightAware ADS-B
Wed 10:41:15 PM 33.2710 -117.2980 113° Southeast 451 519 25,000 1,256 Climbing FlightAware ADS-B
Wed 10:42:00 PM 33.2330 -117.1960 114° Southeast 457 526 25,900 1,227 Climbing FlightAware ADS-B
Wed 10:42:43 PM 33.1960 -117.0960 114° Southeast 463 533 26,800 1,171 Climbing FlightAware ADS-B
Wed 10:43:22 PM 33.1620 -117.0030 114° Southeast 467 537 27,500 1,129 Climbing FlightAware ADS-B
Wed 10:44:08 PM 33.1210 -116.8930 114° Southeast 474 545 28,400 1,091 Climbing FlightAware ADS-B
Wed 10:44:39 PM 33.0940 -116.8200 114° Southeast 479 551 28,900 868 Climbing FlightAware ADS-B
Wed 10:45:24 PM 33.0540 -116.7130 114° Southeast 486 559 29,500 918 Climbing FlightAware ADS-B
Wed 10:46:04 PM 33.0160 -116.6090 114° Southeast 492 566 30,200 947 Climbing FlightAware ADS-B
Wed 10:46:40 PM 32.9820 -116.5210 115° Southeast 498 573 30,700 632 Climbing FlightAware ADS-B
Wed 10:47:20 PM 32.9450 -116.4210 114° Southeast 504 580 31,000 209 Climbing FlightAware ADS-B
Wed 10:48:06 PM 32.9010 -116.3040 114° Southeast 502 578 31,000  Level FlightAware ADS-B
Wed 10:48:40 PM 32.8690 -116.2190 114° Southeast 503 579 31,000  Level FlightAware ADS-B
Wed 10:49:22 PM 32.8280 -116.1120 114° Southeast 502 578 31,000  Level FlightAware ADS-B
Wed 10:50:06 PM 32.7860 -116.0020 114° Southeast 501 577 31,000  Level FlightAware ADS-B
Wed 10:50:46 PM 32.7480 -115.9030 115° Southeast 501 577 31,000  Level FlightAware ADS-B
Wed 10:51:24 PM 32.7130 -115.8090 114° Southeast 501 577 31,000  Level FlightAware ADS-B
Wed 10:52:11 PM 32.6660 -115.6900 115° Southeast 503 579 31,000  Level FlightAware ADS-B
Wed 10:52:48 PM 32.6250 -115.6010 119° Southeast 501 577 31,000  Level FlightAware ADS-B
Wed 10:53:24 PM 32.5800 -115.5160 122° Southeast 500 575 31,000  Level FlightAware ADS-B
Wed 10:54:11 PM 32.5290 -115.4210 122° Southeast 498 573 31,000  Level FlightAware ADS-B
Wed 10:54:51 PM 32.4830 -115.3340 122° Southeast 499 574 31,000  Level FlightAware ADS-B
Wed 10:55:41 PM 32.4190 -115.2160 123° Southeast 500 575 31,000  Level FlightAware ADS-B
Wed 10:56:21 PM 32.3720 -115.1270 122° Southeast 500 575 31,000  Level FlightAware ADS-B
Wed 10:57:01 PM 32.3210 -115.0330 123° Southeast 500 575 31,000  Level FlightAware ADS-B
Wed 10:57:46 PM 32.2630 -114.9240 122° Southeast 499 574 31,000  Level FlightAware ADS-B
Wed 10:58:21 PM 32.2260 -114.8560 123° Southeast 499 574 31,000  Level FlightAware ADS-B
Wed 10:59:12 PM 32.1610 -114.7350 122° Southeast 496 571 31,000  Level FlightAware ADS-B
Wed 10:59:46 PM 32.1260 -114.6680 122° Southeast 496 571 31,000  Level FlightAware ADS-B
Wed 11:00:22 PM 32.0880 -114.5980 123° Southeast 496 571 31,000  Level FlightAware ADS-B
Wed 11:01:10 PM 32.0390 -114.5050 122° Southeast 496 571 31,000  Level FlightAware ADS-B
Wed 11:01:46 PM 32.0020 -114.4340 122° Southeast 496 571 31,000  Level FlightAware ADS-B
Wed 11:02:22 PM 31.9640 -114.3640 123° Southeast 496 571 31,000  Level FlightAware ADS-B
Wed 11:03:11 PM 31.9140 -114.2690 122° Southeast 496 571 31,000  Level FlightAware ADS-B
Wed 11:03:47 PM 31.8760 -114.1980 122° Southeast 496 571 31,000  Level FlightAware ADS-B
Wed 11:04:35 PM 31.8270 -114.1050 122° Southeast 496 571 31,000  Level FlightAware ADS-B
Wed 11:05:11 PM 31.7900 -114.0350 122° Southeast 496 571 31,000  Level FlightAware ADS-B
Wed 11:05:59 PM 31.7400 -113.9420 122° Southeast 496 571 31,000  Level FlightAware ADS-B
Wed 11:06:35 PM 31.7030 -113.8720 122° Southeast 496 571 31,000  Level FlightAware ADS-B
Wed 11:09:00 PM 31.5384 -113.5603 127° Southeast  Level Estimated
Wed 11:09:42 PM 31.3680 -113.3030 127° Southeast 495 570 31,000  Level FlightAware ADS-B
Wed 11:10:22 PM 31.3170 -113.2070 122° Southeast 496 571 31,000  Level FlightAware ADS-B
Wed 11:11:03 PM 31.2670 -113.1110 121° Southeast 498 573 31,000  Level FlightAware ADS-B
Wed 11:11:42 PM 31.2200 -113.0230 122° Southeast 500 575 31,000 228 Level FlightAware ADS-B
Wed 11:12:22 PM 31.1710 -112.9300 122° Southeast 496 571 31,300 900 Climbing FlightAware ADS-B
Wed 11:13:02 PM 31.1220 -112.8380 122° Southeast 496 571 32,200 1,050 Climbing FlightAware ADS-B
Wed 11:13:42 PM 31.0740 -112.7490 122° Southeast 493 567 32,700 558 Climbing FlightAware ADS-B
Wed 11:14:28 PM 31.0180 -112.6450 122° Southeast 495 570 33,000 186 Climbing FlightAware ADS-B
Wed 11:15:19 PM 30.9660 -112.5480 122° Southeast 495 570 33,000  Level FlightAware ADS-B
Wed 11:16:07 PM 30.9170 -112.4560 122° Southeast 495 570 33,000  Level FlightAware ADS-B
Wed 11:16:46 PM 30.8480 -112.3290 122° Southeast 494 568 33,000  Level FlightAware ADS-B
Wed 11:17:31 PM 30.7950 -112.2310 122° Southeast 492 566 33,000  Level FlightAware ADS-B
Wed 11:18:12 PM 30.7450 -112.1380 122° Southeast 488 562 33,000  Level FlightAware ADS-B
Wed 11:18:51 PM 30.6980 -112.0520 122° Southeast 488 562 33,000  Level FlightAware ADS-B
Wed 11:19:36 PM 30.6440 -111.9540 123° Southeast 490 564 33,000  Level FlightAware ADS-B
Wed 11:20:36 PM 30.5710 -111.8210 122° Southeast 489 563 33,000  Level FlightAware ADS-B
Wed 11:21:34 PM 30.5140 -111.7160 122° Southeast 490 564 33,000  Level FlightAware ADS-B
Wed 11:22:32 PM 30.4550 -111.6060 122° Southeast 490 564 33,000  Level FlightAware ADS-B
Wed 11:23:15 PM 30.3740 -111.4620 123° Southeast 491 565 33,000  Level FlightAware ADS-B
Wed 11:23:55 PM 30.3250 -111.3730 123° Southeast 491 565 33,000  Level FlightAware ADS-B
Wed 11:24:35 PM 30.2760 -111.2850 123° Southeast 492 566 33,000  Level FlightAware ADS-B
Wed 11:25:15 PM 30.2260 -111.1960 123° Southeast 495 570 33,000  Level FlightAware ADS-B
Wed 11:25:55 PM 30.1780 -111.1090 123° Southeast 494 568 33,000  Level FlightAware ADS-B
Wed 11:26:35 PM 30.1270 -111.0180 123° Southeast 492 566 33,000  Level FlightAware ADS-B
Wed 11:27:15 PM 30.0780 -110.9310 123° Southeast 492 566 33,000  Level FlightAware ADS-B
Wed 11:27:57 PM 30.0220 -110.8420 126° Southeast 492 566 33,000  Level FlightAware ADS-B
Wed 11:28:43 PM 29.9340 -110.7760 147° Southeast 492 566 33,000  Level FlightAware ADS-B
Wed 11:29:23 PM 29.8540 -110.7250 151° Southeast 496 571 33,000  Level FlightAware ADS-B
Wed 11:30:07 PM 29.7700 -110.6710 151° Southeast 496 571 33,000  Level FlightAware ADS-B
Wed 11:30:39 PM 29.7020 -110.6280 151° Southeast 493 567 33,000  Level FlightAware ADS-B
Wed 11:31:25 PM 29.6260 -110.5770 150° Southeast 493 567 33,000  Level FlightAware ADS-B
Wed 11:32:01 PM 29.5650 -110.5370 150° Southeast 493 567 33,000  Level FlightAware ADS-B
Wed 11:32:37 PM 29.5050 -110.4970 150° Southeast 493 567 33,000  Level FlightAware ADS-B
Wed 11:33:25 PM 29.4240 -110.4440 150° Southeast 493 567 33,000  Level FlightAware ADS-B
Wed 11:34:01 PM 29.3640 -110.4030 149° Southeast 493 567 33,000  Level FlightAware ADS-B
Wed 11:34:40 PM 29.2330 -110.3030 146° Southeast 489 563 33,000  Level FlightAware ADS-B
Wed 11:35:19 PM 29.1710 -110.2440 140° Southeast 489 563 33,000  Level FlightAware ADS-B
Wed 11:35:55 PM 29.1180 -110.1940 141° Southeast 489 563 33,000  Level FlightAware ADS-B
Wed 11:36:45 PM 29.0440 -110.1230 140° Southeast 489 563 33,000  Level FlightAware ADS-B
Wed 11:37:21 PM 28.9910 -110.0720 140° Southeast 489 563 33,000  Level FlightAware ADS-B
Wed 11:38:09 PM 28.9200 -110.0040 140° Southeast 489 563 33,000  Level FlightAware ADS-B
Wed 11:38:45 PM 28.8670 -109.9530 140° Southeast 489 563 33,000  Level FlightAware ADS-B
Wed 11:39:33 PM 28.7970 -109.8860 140° Southeast 489 563 33,000  Level FlightAware ADS-B
Wed 11:40:21 PM 28.7260 -109.8180 140° Southeast 489 563 33,000  Level FlightAware ADS-B
Wed 11:40:57 PM 28.6730 -109.7670 140° Southeast 489 563 33,000  Level FlightAware ADS-B
Wed 11:41:33 PM 28.6200 -109.7160 140° Southeast 489 563 33,000  Level FlightAware ADS-B
Wed 11:42:21 PM 28.5490 -109.6490 140° Southeast 489 563 33,000  Level FlightAware ADS-B
Wed 11:42:58 PM 28.4950 -109.5970 140° Southeast 489 563 33,000  Level FlightAware ADS-B
Wed 11:43:46 PM 28.4240 -109.5290 140° Southeast 489 563 33,000  Level FlightAware ADS-B
Wed 11:44:22 PM 28.3710 -109.4790 140° Southeast 489 563 33,000  Level FlightAware ADS-B
Wed 11:47:00 PM 28.1812 -109.1582 124° Southeast  Level Estimated
Wed 11:48:00 PM 28.1089 -109.0367 124° Southeast  Level Estimated
Wed 11:49:00 PM 28.0365 -108.9154 124° Southeast  Level Estimated
Wed 11:50:00 PM 27.9641 -108.7942 124° Southeast  Level Estimated
Wed 11:51:00 PM 27.8915 -108.6732 124° Southeast  Level Estimated
Wed 11:52:00 PM 27.8188 -108.5523 124° Southeast  Level Estimated
Wed 11:53:00 PM 27.7460 -108.4316 124° Southeast  Level Estimated
Wed 11:54:00 PM 27.6730 -108.3111 124° Southeast  Level Estimated
Wed 11:55:00 PM 27.6000 -108.1907 124° Southeast  Level Estimated
Wed 11:56:00 PM 27.5269 -108.0705 124° Southeast  Level Estimated
Wed 11:57:00 PM 27.4537 -107.9504 124° Southeast  Level Estimated
Wed 11:58:00 PM 27.3804 -107.8306 125° Southeast  Level Estimated
Wed 11:59:00 PM 27.3070 -107.7108 125° Southeast  Level Estimated
Thu 12:00:00 AM 27.2334 -107.5912 125° Southeast  Level Estimated
Thu 12:01:00 AM 27.1598 -107.4718 125° Southeast  Level Estimated
Thu 12:02:00 AM 27.0861 -107.3525 125° Southeast  Level Estimated
Thu 12:03:00 AM 27.0122 -107.2334 125° Southeast  Level Estimated
Thu 12:03:49 AM 27.4400 -106.4980 125° Southeast 472 543 33,000  Level FlightAware ADS-B
Thu 12:04:33 AM 27.3830 -106.4070 125° Southeast 472 543 33,000  Level FlightAware ADS-B
Thu 12:05:13 AM 27.3330 -106.3270 125° Southeast 472 543 33,000  Level FlightAware ADS-B
Thu 12:05:57 AM 27.2780 -106.2380 125° Southeast 473 544 33,000  Level FlightAware ADS-B
Thu 12:06:37 AM 27.2280 -106.1570 125° Southeast 474 545 33,000  Level FlightAware ADS-B
Thu 12:07:17 AM 27.1770 -106.0760 125° Southeast 474 545 33,000  Level FlightAware ADS-B
Thu 12:07:53 AM 27.1320 -106.0040 125° Southeast 476 548 33,000  Level FlightAware ADS-B
Thu 12:08:37 AM 27.0760 -105.9140 125° Southeast 477 549 33,000  Level FlightAware ADS-B
Thu 12:09:17 AM 27.0270 -105.8360 125° Southeast 476 548 33,000  Level FlightAware ADS-B
Thu 12:10:02 AM 26.9690 -105.7440 125° Southeast 478 550 33,000  Level FlightAware ADS-B
Thu 12:10:42 AM 26.9180 -105.6630 125° Southeast 477 549 33,000  Level FlightAware ADS-B
Thu 12:11:23 AM 26.8650 -105.5800 126° Southeast 476 548 33,000  Level FlightAware ADS-B
Thu 12:12:05 AM 26.8120 -105.4960 125° Southeast 477 549 33,000  Level FlightAware ADS-B
Thu 12:12:41 AM 26.7660 -105.4220 125° Southeast 479 551 33,000  Level FlightAware ADS-B
Thu 12:13:24 AM 26.7130 -105.3400 126° Southeast 476 548 33,000  Level FlightAware ADS-B
Thu 12:13:57 AM 26.6690 -105.2700 125° Southeast 477 549 33,000  Level FlightAware ADS-B
Thu 12:14:35 AM 26.6280 -105.2040 125° Southeast 477 549 33,000  Level FlightAware ADS-B
Thu 12:15:23 AM 26.5760 -105.1220 125° Southeast 477 549 33,000  Level FlightAware ADS-B
Thu 12:15:59 AM 26.5370 -105.0600 125° Southeast 477 549 33,000  Level FlightAware ADS-B
Thu 12:16:47 AM 26.4860 -104.9780 125° Southeast 477 549 33,000  Level FlightAware ADS-B
Thu 12:17:23 AM 26.4470 -104.9160 125° Southeast 477 549 33,000  Level FlightAware ADS-B
Thu 12:18:03 AM 26.3590 -104.7850 127° Southeast 476 548 33,000  Level FlightAware ADS-B
Thu 12:19:13 AM 26.2710 -104.6490 126° Southeast 477 549 33,000  Level FlightAware ADS-B
Thu 12:20:11 AM 26.1960 -104.5340 126° Southeast 479 551 33,000  Level FlightAware ADS-B
Thu 12:20:48 AM 26.1440 -104.4530 126° Southeast 479 551 33,000  Level FlightAware ADS-B
Thu 12:21:27 AM 26.1010 -104.3870 126° Southeast 479 551 33,000  Level FlightAware ADS-B
Thu 12:22:23 AM 26.0250 -104.2690 126° Southeast 473 544 33,000  Level FlightAware ADS-B
Thu 12:23:13 AM 25.9650 -104.1780 126° Southeast 475 547 33,000  Level FlightAware ADS-B
Thu 12:24:08 AM 25.8850 -104.0560 126° Southeast 473 544 33,000  Level FlightAware ADS-B
Thu 12:24:53 AM 25.8310 -103.9730 126° Southeast 475 547 33,000  Level FlightAware ADS-B
Thu 12:25:36 AM 25.7710 -103.8820 126° Southeast 476 548 33,000  Level FlightAware ADS-B
Thu 12:26:20 AM 25.7170 -103.7990 126° Southeast 480 552 33,000  Level FlightAware ADS-B
Thu 12:27:01 AM 25.6620 -103.7150 126° Southeast 480 552 33,000  Level FlightAware ADS-B
Thu 12:27:36 AM 25.6140 -103.6420 126° Southeast 480 552 33,000  Level FlightAware ADS-B
Thu 12:28:24 AM 25.5530 -103.5490 126° Southeast 482 555 33,000  Level FlightAware ADS-B
Thu 12:29:03 AM 25.4990 -103.4690 127° Southeast 479 551 33,000  Level FlightAware ADS-B
Thu 12:29:49 AM 25.4410 -103.3820 126° Southeast 481 554 33,000  Level FlightAware ADS-B
Thu 12:31:17 AM 25.3330 -103.2170 126° Southeast 482 555 33,000  Level FlightAware ADS-B
Thu 12:31:49 AM 25.2840 -103.1440 127° Southeast 481 554 33,000  Level FlightAware ADS-B
Thu 12:32:35 AM 25.2230 -103.0530 127° Southeast 478 550 33,000  Level FlightAware ADS-B
Thu 12:33:12 AM 25.1740 -102.9800 127° Southeast 478 550 33,000  Level FlightAware ADS-B
Thu 12:33:51 AM 25.1230 -102.9040 127° Southeast 478 550 33,000  Level FlightAware ADS-B
Thu 12:34:36 AM 25.0690 -102.8240 127° Southeast 477 549 33,000  Level FlightAware ADS-B
Thu 12:35:13 AM 25.0280 -102.7620 126° Southeast 477 549 33,000  Level FlightAware ADS-B
Thu 12:36:06 AM 24.9450 -102.6380 126° Southeast 478 550 33,000  Level FlightAware ADS-B
Thu 12:36:56 AM 24.8830 -102.5470 127° Southeast 479 551 33,000  Level FlightAware ADS-B
Thu 12:37:39 AM 24.8330 -102.4740 127° Southeast 479 551 33,000  Level FlightAware ADS-B
Thu 12:38:24 AM 24.7720 -102.3810 126° Southeast 478 550 33,000  Level FlightAware ADS-B
Thu 12:38:56 AM 24.8020 -102.4280 305° West 479 551 33,000  Level FlightAware ADS-B
Thu 12:41:00 AM 24.6404 -102.1938 127° Southeast  Level Estimated
Thu 12:41:22 AM 24.7730 -102.3850 127° Southeast 480 552 33,000  Level FlightAware ADS-B
Thu 12:42:06 AM 24.7570 -102.3620 127° Southeast 479 551 33,000  Level FlightAware ADS-B
Thu 12:42:42 AM 24.7160 -102.3020 127° Southeast 479 551 33,000  Level FlightAware ADS-B
Thu 12:43:18 AM 24.6750 -102.2420 127° Southeast 479 551 33,000  Level FlightAware ADS-B
Thu 12:44:04 AM 24.6230 -102.1660 127° Southeast 479 551 33,000  Level FlightAware ADS-B
Thu 12:44:40 AM 24.5830 -102.1070 127° Southeast 479 551 33,000  Level FlightAware ADS-B
Thu 12:45:28 AM 24.5280 -102.0270 127° Southeast 479 551 33,000  Level FlightAware ADS-B
Thu 12:46:05 AM 24.4860 -101.9660 127° Southeast 479 551 33,000  Level FlightAware ADS-B
Thu 12:46:53 AM 24.4320 -101.8870 127° Southeast 479 551 33,000  Level FlightAware ADS-B
Thu 12:47:29 AM 24.3910 -101.8270 127° Southeast 479 551 33,000  Level FlightAware ADS-B
Thu 12:48:05 AM 24.3500 -101.7680 127° Southeast 479 551 33,000  Level FlightAware ADS-B
Thu 12:48:53 AM 24.2960 -101.6890 127° Southeast 479 551 33,000  Level FlightAware ADS-B
Thu 12:49:41 AM 24.2410 -101.6100 127° Southeast 479 551 33,000  Level FlightAware ADS-B
Thu 12:50:18 AM 24.1990 -101.5490 127° Southeast 479 551 33,000  Level FlightAware ADS-B
Thu 12:51:07 AM 24.1440 -101.4680 127° Southeast 479 551 33,000  Level FlightAware ADS-B
Thu 12:53:00 AM 23.9833 -101.2678 131° Southeast  Level FlightAware Approximate
Thu 12:54:00 AM 23.8979 -101.1617 131° Southeast  Level FlightAware Approximate
Thu 12:55:00 AM 23.8124 -101.0557 131° Southeast  Level FlightAware Approximate
Thu 12:56:00 AM 23.7268 -100.9499 131° Southeast  Level FlightAware Approximate
Thu 12:57:00 AM 23.6412 -100.8442 131° Southeast  Level FlightAware Approximate
Thu 12:58:00 AM 23.5554 -100.7386 132° Southeast  Level FlightAware Approximate
Thu 12:59:00 AM 23.4681 -100.6348 137° Southeast  Level FlightAware Approximate
Thu 01:00:00 AM 23.3837 -100.5281 131° Southeast  Level FlightAware Approximate
Thu 01:01:00 AM 23.2995 -100.4213 131° Southeast  Level FlightAware Approximate
Thu 01:02:00 AM 23.2151 -100.3148 131° Southeast  Level FlightAware Approximate
Thu 01:03:00 AM 23.1303 -100.2087 131° Southeast  Level FlightAware Approximate
Thu 01:04:00 AM 23.0444 -100.1037 132° Southeast  Level FlightAware Approximate
Thu 01:05:00 AM 22.9573 -100.0000 132° Southeast  Level FlightAware Approximate
Thu 01:06:00 AM 22.8700 -99.8965 132° Southeast  Level FlightAware Approximate
Thu 01:07:00 AM 22.7830 -99.7929 132° Southeast  Level FlightAware Approximate
Thu 01:08:00 AM 22.6962 -99.6890 132° Southeast  Level FlightAware Approximate
Thu 01:09:00 AM 22.6094 -99.5852 132° Southeast  Level FlightAware Approximate
Thu 01:10:00 AM 22.5226 -99.4816 132° Southeast  Level FlightAware Approximate
Thu 01:11:00 AM 22.4357 -99.3781 132° Southeast  Level FlightAware Approximate
Thu 01:12:00 AM 22.3487 -99.2747 132° Southeast  Level FlightAware Approximate
Thu 01:13:00 AM 22.2616 -99.1714 132° Southeast  Level FlightAware Approximate
Thu 01:14:00 AM 22.1745 -99.0683 132° Southeast  Level FlightAware Approximate
Thu 01:15:00 AM 22.0874 -98.9652 132° Southeast  Level FlightAware Approximate
Thu 01:16:00 AM 22.0005 -98.8621 132° Southeast  Level FlightAware Approximate
Thu 01:17:00 AM 21.9135 -98.7590 132° Southeast  Level FlightAware Approximate
Thu 01:18:00 AM 21.8264 -98.6561 132° Southeast  Level FlightAware Approximate
Thu 01:19:00 AM 21.7393 -98.5533 132° Southeast  Level FlightAware Approximate
Thu 01:20:00 AM 21.6521 -98.4507 132° Southeast  Level FlightAware Approximate
Thu 01:21:00 AM 21.5648 -98.3481 132° Southeast  Level FlightAware Approximate
Thu 01:22:00 AM 21.4775 -98.2457 132° Southeast  Level FlightAware Approximate
Thu 01:23:00 AM 21.3901 -98.1434 133° Southeast  Level FlightAware Approximate
Thu 01:24:00 AM 21.3026 -98.0413 133° Southeast  Level FlightAware Approximate
Thu 01:25:00 AM 21.2151 -97.9392 133° Southeast  Level FlightAware Approximate
Thu 01:26:00 AM 21.1276 -97.8373 133° Southeast  Level FlightAware Approximate
Thu 01:27:00 AM 21.0399 -97.7355 133° Southeast  Level FlightAware Approximate
Thu 01:28:00 AM 20.9522 -97.6338 133° Southeast  Level FlightAware Approximate
Thu 01:29:00 AM 20.8645 -97.5322 133° Southeast  Level FlightAware Approximate
Thu 01:30:00 AM 20.7767 -97.4308 133° Southeast  Level FlightAware Approximate
Thu 01:31:00 AM 20.6888 -97.3294 133° Southeast  Level FlightAware Approximate
Thu 01:32:00 AM 20.6008 -97.2282 133° Southeast  Level FlightAware Approximate
Thu 01:33:00 AM 20.5129 -97.1271 133° Southeast  Level FlightAware Approximate
Thu 01:34:00 AM 20.4248 -97.0262 133° Southeast  Level FlightAware Approximate
Thu 01:35:00 AM 20.3367 -96.9253 133° Southeast  Level FlightAware Approximate
Thu 01:36:00 AM 20.2491 -96.8240 132° Southeast  Level FlightAware Approximate
Thu 01:37:00 AM 20.1652 -96.7193 128° Southeast  Level FlightAware Approximate
Thu 01:38:00 AM 20.0855 -96.6110 128° Southeast  Level FlightAware Approximate
Thu 01:39:00 AM 20.0057 -96.5028 128° Southeast  Level FlightAware Approximate
Thu 01:40:00 AM 19.9258 -96.3947 128° Southeast  Level FlightAware Approximate
Thu 01:41:00 AM 19.8459 -96.2867 128° Southeast  Level FlightAware Approximate
Thu 01:42:00 AM 19.7659 -96.1788 128° Southeast  Level FlightAware Approximate
Thu 01:43:00 AM 19.6858 -96.0710 128° Southeast  Level FlightAware Approximate
Thu 01:44:00 AM 19.6057 -95.9633 128° Southeast  Level FlightAware Approximate
Thu 01:45:00 AM 19.5255 -95.8558 128° Southeast  Level FlightAware Approximate
Thu 01:46:00 AM 19.4453 -95.7483 128° Southeast  Level FlightAware Approximate
Thu 01:47:00 AM 19.3650 -95.6409 128° Southeast  Level FlightAware Approximate
Thu 01:48:00 AM 19.2846 -95.5337 128° Southeast  Level FlightAware Approximate
Thu 01:49:00 AM 19.2042 -95.4265 128° Southeast  Level FlightAware Approximate
Thu 01:50:00 AM 19.1237 -95.3195 129° Southeast  Level FlightAware Approximate
Thu 01:51:00 AM 19.0431 -95.2126 129° Southeast  Level FlightAware Approximate
Thu 01:52:00 AM 18.9625 -95.1057 128° Southeast  Level FlightAware Approximate
Thu 01:53:00 AM 18.8820 -94.9988 129° Southeast  Level FlightAware Approximate
Thu 01:54:00 AM 18.8015 -94.8920 129° Southeast  Level FlightAware Approximate
Thu 01:55:00 AM 18.7209 -94.7853 129° Southeast  Level FlightAware Approximate
Thu 01:56:00 AM 18.6402 -94.6787 129° Southeast  Level FlightAware Approximate
Thu 01:57:00 AM 18.5594 -94.5723 129° Southeast  Level FlightAware Approximate
Thu 01:58:00 AM 18.4786 -94.4659 129° Southeast  Level FlightAware Approximate
Thu 01:59:00 AM 18.3978 -94.3596 129° Southeast  Level FlightAware Approximate
Thu 02:00:00 AM 18.3169 -94.2534 129° Southeast  Level FlightAware Approximate
Thu 02:01:00 AM 18.2359 -94.1473 129° Southeast  Level FlightAware Approximate
Thu 02:02:00 AM 18.1549 -94.0414 129° Southeast  Level FlightAware Approximate
Thu 02:03:00 AM 18.0738 -93.9355 129° Southeast  Level FlightAware Approximate
Thu 02:04:00 AM 17.9926 -93.8297 129° Southeast  Level FlightAware Approximate
Thu 02:05:00 AM 17.9114 -93.7240 129° Southeast  Level FlightAware Approximate
Thu 02:06:00 AM 17.8302 -93.6184 129° Southeast  Level FlightAware Approximate
Thu 02:07:00 AM 17.7488 -93.5129 129° Southeast  Level FlightAware Approximate
Thu 02:08:00 AM 17.6675 -93.4075 129° Southeast  Level FlightAware Approximate
Thu 02:09:00 AM 17.5861 -93.3022 129° Southeast  Level FlightAware Approximate
Thu 02:10:00 AM 17.5046 -93.1970 129° Southeast  Level FlightAware Approximate
Thu 02:11:00 AM 17.4230 -93.0919 129° Southeast  Level FlightAware Approximate
Thu 02:12:00 AM 17.3414 -92.9869 129° Southeast  Level FlightAware Approximate
Thu 02:13:00 AM 17.2598 -92.8820 129° Southeast  Level FlightAware Approximate
Thu 02:14:00 AM 17.1781 -92.7771 129° Southeast  Level FlightAware Approximate
Thu 02:15:00 AM 17.0963 -92.6724 129° Southeast  Level FlightAware Approximate
Thu 02:16:00 AM 17.0145 -92.5677 129° Southeast  Level FlightAware Approximate
Thu 02:17:00 AM 16.9326 -92.4632 129° Southeast  Level FlightAware Approximate
Thu 02:18:00 AM 16.8507 -92.3587 129° Southeast  Level FlightAware Approximate
Thu 02:19:00 AM 16.7687 -92.2543 129° Southeast  Level FlightAware Approximate
Thu 02:20:00 AM 16.6867 -92.1500 129° Southeast  Level FlightAware Approximate
Thu 02:21:00 AM 16.6046 -92.0458 129° Southeast  Level FlightAware Approximate
Thu 02:22:00 AM 16.5225 -91.9417 129° Southeast  Level FlightAware Approximate
Thu 02:23:00 AM 16.4403 -91.8377 129° Southeast  Level FlightAware Approximate
Thu 02:24:00 AM 16.3581 -91.7338 129° Southeast  Level FlightAware Approximate
Thu 02:25:00 AM 16.2758 -91.6299 130° Southeast  Level FlightAware Approximate
Thu 02:26:00 AM 16.1935 -91.5262 130° Southeast  Level FlightAware Approximate
Thu 02:27:00 AM 16.1111 -91.4225 130° Southeast  Level FlightAware Approximate
Thu 02:28:00 AM 16.0285 -91.3190 130° Southeast  Level FlightAware Approximate
Thu 02:29:00 AM 15.9458 -91.2157 130° Southeast  Level FlightAware Approximate
Thu 02:30:00 AM 15.8630 -91.1125 130° Southeast  Level FlightAware Approximate
Thu 02:31:00 AM 15.7802 -91.0094 130° Southeast  Level FlightAware Approximate
Thu 02:32:00 AM 15.6973 -90.9064 130° Southeast  Level FlightAware Approximate
Thu 02:33:00 AM 15.6143 -90.8035 130° Southeast  Level FlightAware Approximate
Thu 02:34:00 AM 15.5314 -90.7006 130° Southeast  Level FlightAware Approximate
Thu 02:35:00 AM 15.4483 -90.5978 130° Southeast  Level FlightAware Approximate
Thu 02:36:00 AM 15.3652 -90.4952 130° Southeast  Level FlightAware Approximate
Thu 02:37:00 AM 15.2821 -90.3925 130° Southeast  Level FlightAware Approximate
Thu 02:37:22 AM 14.1500 -89.0300 130° Southeast 505 581 33,000  Level FlightAware ADS-B
Thu 02:38:00 AM 15.1989 -90.2900 130° Southeast  Level FlightAware Approximate
Thu 02:38:04 AM 14.0870 -88.9540 131° Southeast 505 581 33,000  Level FlightAware ADS-B
Thu 02:38:42 AM 14.0290 -88.8840 130° Southeast 504 580 33,000  Level FlightAware ADS-B
Thu 02:39:23 AM 13.9680 -88.8110 131° Southeast 504 580 33,000  Level FlightAware ADS-B
Thu 02:40:07 AM 13.9000 -88.7300 131° Southeast 505 581 33,000  Level FlightAware ADS-B
Thu 02:40:35 AM 13.8580 -88.6790 130° Southeast 503 579 33,000  Level FlightAware ADS-B
Thu 02:41:15 AM 13.7970 -88.6060 131° Southeast 502 578 33,000  Level FlightAware ADS-B
Thu 02:41:55 AM 13.7360 -88.5330 131° Southeast 502 578 33,000  Level FlightAware ADS-B
Thu 02:42:35 AM 13.6750 -88.4600 131° Southeast 501 577 33,000  Level FlightAware ADS-B
Thu 02:43:18 AM 13.6180 -88.3910 130° Southeast 500 575 33,000  Level FlightAware ADS-B
Thu 02:43:54 AM 13.5720 -88.3350 130° Southeast 500 575 33,000  Level FlightAware ADS-B
Thu 02:44:42 AM 13.5120 -88.2610 130° Southeast 500 575 33,000  Level FlightAware ADS-B
Thu 02:45:18 AM 13.4660 -88.2050 130° Southeast 500 575 33,000  Level FlightAware ADS-B
Thu 02:46:06 AM 13.3580 -88.0830 132° Southeast 497 572 33,000  Level FlightAware ADS-B
Thu 02:46:42 AM 13.3030 -88.0180 131° Southeast 496 571 33,000  Level FlightAware ADS-B
Thu 02:47:20 AM 13.2480 -87.9520 131° Southeast 494 568 33,000  Level FlightAware ADS-B
Thu 02:48:02 AM 13.1820 -87.8740 131° Southeast 496 571 33,000  Level FlightAware ADS-B
Thu 02:48:48 AM 13.1180 -87.7980 131° Southeast 496 571 33,000  Level FlightAware ADS-B
Thu 02:49:36 AM 13.0530 -87.7190 130° Southeast 496 571 33,000  Level FlightAware ADS-B
Thu 02:50:13 AM 13.0060 -87.6620 130° Southeast 496 571 33,000  Level FlightAware ADS-B
Thu 02:51:01 AM 12.9460 -87.5880 130° Southeast 496 571 33,000  Level FlightAware ADS-B
Thu 02:51:37 AM 12.9010 -87.5330 130° Southeast 496 571 33,000  Level FlightAware ADS-B
Thu 02:52:25 AM 12.8410 -87.4600 130° Southeast 496 571 33,000  Level FlightAware ADS-B
Thu 02:53:02 AM 12.7950 -87.4030 130° Southeast 496 571 33,000  Level FlightAware ADS-B
Thu 02:53:38 AM 12.7490 -87.3480 131° Southeast 496 571 33,000  Level FlightAware ADS-B
Thu 02:54:26 AM 12.6890 -87.2740 130° Southeast 496 571 33,000  Level FlightAware ADS-B
Thu 02:55:02 AM 12.6440 -87.2190 130° Southeast 496 571 33,000  Level FlightAware ADS-B
Thu 02:55:38 AM 12.5990 -87.1640 130° Southeast 496 571 33,000  Level FlightAware ADS-B
Thu 02:56:15 AM 12.5530 -87.1070 130° Southeast 496 571 33,000  Level FlightAware ADS-B
Thu 02:57:03 AM 12.4920 -87.0340 131° Southeast 496 571 33,000  Level FlightAware ADS-B
Thu 02:57:39 AM 12.4470 -86.9790 130° Southeast 496 571 33,000  Level FlightAware ADS-B
Thu 02:58:27 AM 12.3870 -86.9050 130° Southeast 496 571 33,000  Level FlightAware ADS-B
Thu 03:01:00 AM 12.1762 -86.6457 130° Southeast  Level FlightAware Approximate
Thu 03:02:00 AM 12.0935 -86.5442 130° Southeast  Level FlightAware Approximate
Thu 03:03:00 AM 12.0102 -86.4435 136° Southeast  Level FlightAware Approximate
Thu 03:04:00 AM 11.9190 -86.3499 131° Southeast  Level FlightAware Approximate
Thu 03:05:00 AM 11.8340 -86.2504 131° Southeast  Level FlightAware Approximate
Thu 03:06:00 AM 11.7490 -86.1510 131° Southeast  Level FlightAware Approximate
Thu 03:07:00 AM 11.6639 -86.0517 131° Southeast  Level FlightAware Approximate
Thu 03:08:00 AM 11.5788 -85.9524 131° Southeast  Level FlightAware Approximate
Thu 03:08:23 AM 11.3400 -85.7150 131° Southeast 494 568 33,000  Level FlightAware ADS-B
Thu 03:09:01 AM 11.2920 -85.6580 131° Southeast 494 568 33,000  Level FlightAware ADS-B
Thu 03:09:40 AM 11.2230 -85.5800 132° Southeast 494 568 33,000  Level FlightAware ADS-B
Thu 03:10:24 AM 11.1570 -85.5030 131° Southeast 491 565 33,000  Level FlightAware ADS-B
Thu 03:11:00 AM 11.1030 -85.4390 131° Southeast 492 566 33,000  Level FlightAware ADS-B
Thu 03:11:47 AM 11.0340 -85.3570 131° Southeast 492 566 33,000  Level FlightAware ADS-B
Thu 03:12:26 AM 10.9750 -85.2870 131° Southeast 492 566 33,000  Level FlightAware ADS-B
Thu 03:13:12 AM 10.9070 -85.2060 131° Southeast 493 567 33,000  Level FlightAware ADS-B
Thu 03:14:05 AM 10.8360 -85.1220 131° Southeast 492 566 33,000  Level FlightAware ADS-B
Thu 03:14:40 AM 10.7760 -85.0530 132° Southeast 489 563 33,000  Level FlightAware ADS-B
Thu 03:15:24 AM 10.7100 -84.9750 131° Southeast 484 557 33,000  Level FlightAware ADS-B
Thu 03:16:04 AM 10.6520 -84.9070 131° Southeast 484 557 33,000  Level FlightAware ADS-B
Thu 03:16:44 AM 10.5940 -84.8390 131° Southeast 482 555 33,000  Level FlightAware ADS-B
Thu 03:17:30 AM 10.5260 -84.7580 130° Southeast 482 555 33,000  Level FlightAware ADS-B
Thu 03:18:11 AM 10.4680 -84.6900 131° Southeast 484 557 33,000  Level FlightAware ADS-B
Thu 03:18:55 AM 10.4030 -84.6130 131° Southeast 487 560 33,000  Level FlightAware ADS-B
Thu 03:19:34 AM 10.3440 -84.5450 131° Southeast 487 560 33,000  Level FlightAware ADS-B
Thu 03:20:38 AM 10.2500 -84.4350 131° Southeast 485 558 33,000  Level FlightAware ADS-B
Thu 03:21:16 AM 10.1940 -84.3690 131° Southeast 482 555 33,000  Level FlightAware ADS-B
Thu 03:21:56 AM 10.1370 -84.3020 131° Southeast 482 555 33,000  Level FlightAware ADS-B
Thu 03:22:36 AM 10.0770 -84.2320 131° Southeast 482 555 33,000  Level FlightAware ADS-B
Thu 03:23:16 AM 10.0180 -84.1630 131° Southeast 482 555 33,000  Level FlightAware ADS-B
Thu 03:23:52 AM 9.9670 -84.1030 131° Southeast 482 555 33,000  Level FlightAware ADS-B
Thu 03:24:36 AM 9.9020 -84.0280 131° Southeast 477 549 33,000  Level FlightAware ADS-B
Thu 03:25:16 AM 9.8440 -83.9600 131° Southeast 476 548 33,000  Level FlightAware ADS-B
Thu 03:25:58 AM 9.7840 -83.8890 131° Southeast 477 549 33,000  Level FlightAware ADS-B
Thu 03:26:42 AM 9.7200 -83.8150 131° Southeast 476 548 33,000  Level FlightAware ADS-B
Thu 03:27:22 AM 9.6620 -83.7470 131° Southeast 476 548 33,000  Level FlightAware ADS-B
Thu 03:28:06 AM 9.5980 -83.6730 131° Southeast 477 549 33,000  Level FlightAware ADS-B
Thu 03:28:42 AM 9.5450 -83.6110 131° Southeast 479 551 33,000  Level FlightAware ADS-B
Thu 03:29:20 AM 9.4900 -83.5470 131° Southeast 479 551 33,000  Level FlightAware ADS-B
Thu 03:30:04 AM 9.4260 -83.4720 131° Southeast 478 550 33,000  Level FlightAware ADS-B
Thu 03:30:46 AM 9.3650 -83.4010 131° Southeast 477 549 33,000  Level FlightAware ADS-B
Thu 03:31:26 AM 9.3060 -83.3340 132° Southeast 479 551 33,000 643 Level FlightAware ADS-B
Thu 03:32:10 AM 9.2430 -83.2600 131° Southeast 478 550 33,900 1,286 Climbing FlightAware ADS-B
Thu 03:32:50 AM 9.1840 -83.1920 131° Southeast 477 549 34,800 846 Climbing FlightAware ADS-B
Thu 03:33:28 AM 9.1290 -83.1280 131° Southeast 469 540 35,000 152 Climbing FlightAware ADS-B
Thu 03:34:09 AM 9.0730 -83.0620 131° Southeast 467 537 35,000  Level FlightAware ADS-B
Thu 03:34:48 AM 9.0150 -82.9960 132° Southeast 467 537 35,000  Level FlightAware ADS-B
Thu 03:35:36 AM 8.9540 -82.9250 131° Southeast 466 536 35,000  Level FlightAware ADS-B
Thu 03:36:24 AM 8.8960 -82.8570 131° Southeast 466 536 35,000  Level FlightAware ADS-B
Thu 03:37:00 AM 8.8530 -82.8070 131° Southeast 466 536 35,000  Level FlightAware ADS-B
Thu 03:37:36 AM 8.8090 -82.7570 132° Southeast 466 536 35,000  Level FlightAware ADS-B
Thu 03:38:24 AM 8.7520 -82.6890 130° Southeast 466 536 35,000  Level FlightAware ADS-B
Thu 03:39:00 AM 8.7080 -82.6390 132° Southeast 466 536 35,000  Level FlightAware ADS-B
Thu 03:39:48 AM 8.6510 -82.5720 131° Southeast 466 536 35,000  Level FlightAware ADS-B
Thu 03:40:27 AM 8.6040 -82.5170 131° Southeast 466 536 35,000  Level FlightAware ADS-B
Thu 03:41:04 AM 8.5590 -82.4660 132° Southeast 466 536 35,000  Level FlightAware ADS-B
Thu 03:42:03 AM 8.4880 -82.3830 131° Southeast 466 536 35,000  Level FlightAware ADS-B
Thu 03:42:51 AM 8.4310 -82.3160 131° Southeast 466 536 35,000  Level FlightAware ADS-B
Thu 03:43:39 AM 8.3730 -82.2490 131° Southeast 466 536 35,000  Level FlightAware ADS-B
Thu 03:44:15 AM 8.3300 -82.1990 131° Southeast 466 536 35,000  Level FlightAware ADS-B
Thu 03:45:03 AM 8.2720 -82.1320 131° Southeast 466 536 35,000  Level FlightAware ADS-B
Thu 03:47:00 AM 8.0784 -81.9660 133° Southeast  Level FlightAware Approximate
Thu 03:48:00 AM 7.9901 -81.8707 133° Southeast  Level FlightAware Approximate
Thu 03:49:00 AM 7.9017 -81.7754 133° Southeast  Level FlightAware Approximate
Thu 03:50:00 AM 7.8134 -81.6802 133° Southeast  Level FlightAware Approximate
Thu 03:51:00 AM 7.7250 -81.5850 133° Southeast  Level FlightAware Approximate
Thu 03:52:00 AM 7.6366 -81.4899 133° Southeast  Level FlightAware Approximate
Thu 03:53:00 AM 7.5482 -81.3948 133° Southeast  Level FlightAware Approximate
Thu 03:54:00 AM 7.4598 -81.2997 133° Southeast  Level FlightAware Approximate
Thu 03:55:00 AM 7.3713 -81.2047 133° Southeast  Level FlightAware Approximate
Thu 03:56:00 AM 7.2828 -81.1097 133° Southeast  Level FlightAware Approximate
Thu 03:57:00 AM 7.1943 -81.0148 133° Southeast  Level FlightAware Approximate
Thu 03:58:00 AM 7.1058 -80.9199 133° Southeast  Level FlightAware Approximate
Thu 03:59:00 AM 7.0173 -80.8250 133° Southeast  Level FlightAware Approximate
Thu 04:00:00 AM 6.9287 -80.7301 133° Southeast  Level FlightAware Approximate
Thu 04:01:00 AM 6.8401 -80.6354 133° Southeast  Level FlightAware Approximate
Thu 04:02:00 AM 6.7515 -80.5406 133° Southeast  Level FlightAware Approximate
Thu 04:03:00 AM 6.6629 -80.4459 133° Southeast  Level FlightAware Approximate
Thu 04:04:00 AM 6.5743 -80.3512 133° Southeast  Level FlightAware Approximate
Thu 04:05:00 AM 6.4856 -80.2565 133° Southeast  Level FlightAware Approximate
Thu 04:06:00 AM 6.3970 -80.1619 133° Southeast  Level FlightAware Approximate
Thu 04:07:00 AM 6.3083 -80.0673 133° Southeast  Level FlightAware Approximate
Thu 04:08:00 AM 6.2196 -79.9727 133° Southeast  Level FlightAware Approximate
Thu 04:09:00 AM 6.1309 -79.8782 133° Southeast  Level FlightAware Approximate
Thu 04:10:00 AM 6.0422 -79.7837 133° Southeast  Level FlightAware Approximate
Thu 04:11:00 AM 5.9534 -79.6892 133° Southeast  Level FlightAware Approximate
Thu 04:12:00 AM 5.8646 -79.5948 133° Southeast  Level FlightAware Approximate
Thu 04:13:00 AM 5.7759 -79.5004 133° Southeast  Level FlightAware Approximate
Thu 04:14:00 AM 5.6871 -79.4060 133° Southeast  Level FlightAware Approximate
Thu 04:15:00 AM 5.5982 -79.3117 133° Southeast  Level FlightAware Approximate
Thu 04:16:00 AM 5.5094 -79.2173 133° Southeast  Level FlightAware Approximate
Thu 04:17:00 AM 5.4206 -79.1230 133° Southeast  Level FlightAware Approximate
Thu 04:18:00 AM 5.3317 -79.0288 133° Southeast  Level FlightAware Approximate
Thu 04:19:00 AM 5.2428 -78.9345 133° Southeast  Level FlightAware Approximate
Thu 04:20:00 AM 5.1540 -78.8403 133° Southeast  Level FlightAware Approximate
Thu 04:21:00 AM 5.0651 -78.7461 133° Southeast  Level FlightAware Approximate
Thu 04:22:00 AM 4.9762 -78.6520 133° Southeast  Level FlightAware Approximate
Thu 04:23:00 AM 4.8872 -78.5579 133° Southeast  Level FlightAware Approximate
Thu 04:24:00 AM 4.7983 -78.4638 133° Southeast  Level FlightAware Approximate
Thu 04:25:00 AM 4.7093 -78.3697 133° Southeast  Level FlightAware Approximate
Thu 04:26:00 AM 4.6204 -78.2756 133° Southeast  Level FlightAware Approximate
Thu 04:27:00 AM 4.5314 -78.1816 134° Southeast  Level FlightAware Approximate
Thu 04:28:00 AM 4.4424 -78.0876 134° Southeast  Level FlightAware Approximate
Thu 04:29:00 AM 4.3534 -77.9936 134° Southeast  Level FlightAware Approximate
Thu 04:30:00 AM 4.2644 -77.8996 134° Southeast  Level FlightAware Approximate
Thu 04:31:00 AM 4.1754 -77.8056 134° Southeast  Level FlightAware Approximate
Thu 04:32:00 AM 4.0863 -77.7117 134° Southeast  Level FlightAware Approximate
Thu 04:33:00 AM 3.9973 -77.6178 134° Southeast  Level FlightAware Approximate
Thu 04:34:00 AM 3.9082 -77.5239 134° Southeast  Level FlightAware Approximate
Thu 04:35:00 AM 3.8192 -77.4301 134° Southeast  Level FlightAware Approximate
Thu 04:36:00 AM 3.7301 -77.3363 134° Southeast  Level FlightAware Approximate
Thu 04:37:00 AM 3.6410 -77.2424 134° Southeast  Level FlightAware Approximate
Thu 04:38:00 AM 3.5519 -77.1486 134° Southeast  Level FlightAware Approximate
Thu 04:39:00 AM 3.4628 -77.0548 134° Southeast  Level FlightAware Approximate
Thu 04:40:00 AM 3.3737 -76.9611 134° Southeast  Level FlightAware Approximate
Thu 04:41:00 AM 3.2845 -76.8673 134° Southeast  Level FlightAware Approximate
Thu 04:42:00 AM 3.1954 -76.7736 134° Southeast  Level FlightAware Approximate
Thu 04:43:00 AM 3.1063 -76.6798 134° Southeast  Level FlightAware Approximate
Thu 04:44:00 AM 3.0171 -76.5862 134° Southeast  Level FlightAware Approximate
Thu 04:45:00 AM 2.9280 -76.4925 134° Southeast  Level FlightAware Approximate
Thu 04:46:00 AM 2.8388 -76.3988 134° Southeast  Level FlightAware Approximate
Thu 04:47:00 AM 2.7496 -76.3051 134° Southeast  Level FlightAware Approximate
Thu 04:48:00 AM 2.6604 -76.2115 134° Southeast  Level FlightAware Approximate
Thu 04:48:57 AM 2.6760 -75.9210 134° Southeast 452 520 35,000  Level FlightAware ADS-B
Thu 04:49:00 AM 2.5713 -76.1179 134° Southeast  Level FlightAware Approximate
Thu 04:49:39 AM 2.6150 -75.8530 132° Southeast 455 524 35,000  Level FlightAware ADS-B
Thu 04:50:37 AM 2.5400 -75.7700 132° Southeast 457 526 35,000  Level FlightAware ADS-B
Thu 04:51:34 AM 2.5440 -75.7740 315° West 457 526 35,000  Level FlightAware ADS-B
Thu 04:52:10 AM 2.5000 -75.7260 133° Southeast 457 526 35,000  Level FlightAware ADS-B
Thu 04:52:58 AM 2.4430 -75.6620 132° Southeast 457 526 35,000  Level FlightAware ADS-B
Thu 04:53:34 AM 2.3990 -75.6140 133° Southeast 457 526 35,000  Level FlightAware ADS-B
Thu 04:54:23 AM 2.3410 -75.5490 132° Southeast 457 526 35,000  Level FlightAware ADS-B
Thu 04:54:59 AM 2.2970 -75.5000 132° Southeast 457 526 35,000  Level FlightAware ADS-B
Thu 04:55:47 AM 2.2400 -75.4360 132° Southeast 457 526 35,000  Level FlightAware ADS-B
Thu 04:56:23 AM 2.1960 -75.3880 133° Southeast 457 526 35,000  Level FlightAware ADS-B
Thu 04:57:11 AM 2.1390 -75.3240 132° Southeast 457 526 35,000  Level FlightAware ADS-B
Thu 04:57:47 AM 2.0950 -75.2760 133° Southeast 457 526 35,000  Level FlightAware ADS-B
Thu 04:58:35 AM 2.0370 -75.2120 132° Southeast 457 526 35,000  Level FlightAware ADS-B
Thu 04:59:11 AM 1.9940 -75.1640 132° Southeast 457 526 35,000  Level FlightAware ADS-B
Thu 05:00:11 AM 1.9220 -75.0830 132° Southeast 457 526 35,000  Level FlightAware ADS-B
Thu 05:00:48 AM 1.8780 -75.0340 132° Southeast 457 526 35,000 -8 Level FlightAware ADS-B
Thu 05:03:00 AM 1.6804 -74.8294 134° Southeast  Level Estimated
Thu 05:04:00 AM 1.5906 -74.7365 134° Southeast  Level Estimated
Thu 05:05:00 AM 1.5008 -74.6435 134° Southeast  Level Estimated
Thu 05:06:00 AM 1.4110 -74.5505 134° Southeast  Level Estimated
Thu 05:07:00 AM 1.3212 -74.4576 134° Southeast  Level Estimated
Thu 05:08:00 AM 1.2313 -74.3646 134° Southeast  Level Estimated
Thu 05:09:00 AM 1.1415 -74.2717 134° Southeast  Level Estimated
Thu 05:10:00 AM 1.0517 -74.1788 134° Southeast  Level Estimated
Thu 05:11:00 AM 0.9618 -74.0859 134° Southeast  Level Estimated
Thu 05:12:00 AM 0.8720 -73.9929 134° Southeast  Level Estimated
Thu 05:13:00 AM 0.7821 -73.9000 134° Southeast  Level Estimated
Thu 05:14:00 AM 0.6923 -73.8071 134° Southeast  Level Estimated
Thu 05:15:00 AM 0.6025 -73.7142 134° Southeast  Level Estimated
Thu 05:16:00 AM 0.5126 -73.6213 134° Southeast  Level Estimated
Thu 05:17:00 AM 0.4228 -73.5284 134° Southeast  Level Estimated
Thu 05:18:00 AM 0.3329 -73.4355 134° Southeast  Level Estimated
Thu 05:19:00 AM 0.2431 -73.3426 134° Southeast  Level Estimated
Thu 05:20:00 AM 0.1532 -73.2497 134° Southeast  Level Estimated
Thu 05:21:00 AM 0.0634 -73.1568 134° Southeast  Level Estimated
Thu 05:22:00 AM -0.0265 -73.0639 134° Southeast  Level Estimated
Thu 05:23:00 AM -0.1163 -72.9710 134° Southeast  Level Estimated
Thu 05:24:00 AM -0.2062 -72.8781 134° Southeast  Level Estimated
Thu 05:25:00 AM -0.2960 -72.7852 134° Southeast  Level Estimated
Thu 05:26:00 AM -0.3859 -72.6923 134° Southeast  Level Estimated
Thu 05:27:00 AM -0.4757 -72.5994 134° Southeast  Level Estimated
Thu 05:28:00 AM -0.5656 -72.5065 134° Southeast  Level Estimated
Thu 05:29:00 AM -0.6554 -72.4136 134° Southeast  Level Estimated
Thu 05:30:00 AM -0.7453 -72.3207 134° Southeast  Level Estimated
Thu 05:31:00 AM -0.8351 -72.2278 134° Southeast  Level Estimated
Thu 05:32:00 AM -0.9250 -72.1348 134° Southeast  Level Estimated
Thu 05:33:00 AM -1.0148 -72.0419 134° Southeast  Level Estimated
Thu 05:34:00 AM -1.1046 -71.9490 134° Southeast  Level Estimated
Thu 05:35:00 AM -1.1945 -71.8560 134° Southeast  Level Estimated
Thu 05:36:00 AM -1.2843 -71.7631 134° Southeast  Level Estimated
Thu 05:37:00 AM -1.3741 -71.6702 134° Southeast  Level Estimated
Thu 05:38:00 AM -1.4639 -71.5772 134° Southeast  Level Estimated
Thu 05:39:00 AM -1.5537 -71.4843 134° Southeast  Level Estimated
Thu 05:40:00 AM -1.6436 -71.3913 134° Southeast  Level Estimated
Thu 05:41:00 AM -1.7334 -71.2983 134° Southeast  Level Estimated
Thu 05:42:00 AM -1.8232 -71.2053 134° Southeast  Level Estimated
Thu 05:43:00 AM -1.9130 -71.1123 134° Southeast  Level Estimated
Thu 05:44:00 AM -2.0027 -71.0193 134° Southeast  Level Estimated
Thu 05:45:00 AM -2.0925 -70.9263 134° Southeast  Level Estimated
Thu 05:46:00 AM -2.1823 -70.8333 134° Southeast  Level Estimated
Thu 05:47:00 AM -2.2721 -70.7402 134° Southeast  Level Estimated
Thu 05:48:00 AM -2.3619 -70.6472 134° Southeast  Level Estimated
Thu 05:49:00 AM -2.4516 -70.5541 134° Southeast  Level Estimated
Thu 05:50:00 AM -2.5414 -70.4610 134° Southeast  Level Estimated
Thu 05:51:00 AM -2.6312 -70.3679 134° Southeast  Level Estimated
Thu 05:52:00 AM -2.7209 -70.2748 134° Southeast  Level Estimated
Thu 05:53:00 AM -2.8106 -70.1817 134° Southeast  Level Estimated
Thu 05:54:00 AM -2.9004 -70.0886 134° Southeast  Level Estimated
Thu 05:55:00 AM -2.9901 -69.9955 134° Southeast  Level Estimated
Thu 05:56:00 AM -3.0798 -69.9023 134° Southeast  Level Estimated
Thu 05:57:00 AM -3.1695 -69.8091 134° Southeast  Level Estimated
Thu 05:58:00 AM -3.2592 -69.7159 134° Southeast  Level Estimated
Thu 05:59:00 AM -3.3489 -69.6227 134° Southeast  Level Estimated
Thu 06:00:00 AM -3.4386 -69.5295 134° Southeast  Level Estimated
Thu 06:01:00 AM -3.5283 -69.4363 134° Southeast  Level Estimated
Thu 06:02:00 AM -3.6179 -69.3430 134° Southeast  Level Estimated
Thu 06:03:00 AM -3.7076 -69.2497 134° Southeast  Level Estimated
Thu 06:04:00 AM -3.7972 -69.1564 134° Southeast  Level Estimated
Thu 06:05:00 AM -3.8868 -69.0631 134° Southeast  Level Estimated
Thu 06:06:00 AM -3.9765 -68.9698 134° Southeast  Level Estimated
Thu 06:07:00 AM -4.0661 -68.8764 134° Southeast  Level Estimated
Thu 06:08:00 AM -4.1557 -68.7830 134° Southeast  Level Estimated
Thu 06:09:00 AM -4.2453 -68.6896 134° Southeast  Level Estimated
Thu 06:10:00 AM -4.3348 -68.5962 134° Southeast  Level Estimated
Thu 06:11:00 AM -4.4244 -68.5028 134° Southeast  Level Estimated
Thu 06:12:00 AM -4.5140 -68.4093 134° Southeast  Level Estimated
Thu 06:13:00 AM -4.6035 -68.3158 134° Southeast  Level Estimated
Thu 06:14:00 AM -4.6930 -68.2223 134° Southeast  Level Estimated
Thu 06:15:00 AM -4.7826 -68.1288 134° Southeast  Level Estimated
Thu 06:16:00 AM -4.8721 -68.0352 134° Southeast  Level Estimated
Thu 06:17:00 AM -4.9616 -67.9416 134° Southeast  Level Estimated
Thu 06:18:00 AM -5.0511 -67.8480 134° Southeast  Level Estimated
Thu 06:19:00 AM -5.1405 -67.7544 134° Southeast  Level Estimated
Thu 06:20:00 AM -5.2300 -67.6607 134° Southeast  Level Estimated
Thu 06:21:00 AM -5.3194 -67.5670 134° Southeast  Level Estimated
Thu 06:22:00 AM -5.4088 -67.4733 134° Southeast  Level Estimated
Thu 06:23:00 AM -5.4983 -67.3796 134° Southeast  Level Estimated
Thu 06:24:00 AM -5.5876 -67.2858 134° Southeast  Level Estimated
Thu 06:25:00 AM -5.6770 -67.1920 134° Southeast  Level Estimated
Thu 06:26:00 AM -5.7664 -67.0982 134° Southeast  Level Estimated
Thu 06:27:00 AM -5.8558 -67.0043 134° Southeast  Level Estimated
Thu 06:28:00 AM -5.9451 -66.9104 134° Southeast  Level Estimated
Thu 06:29:00 AM -6.0344 -66.8165 134° Southeast  Level Estimated
Thu 06:30:00 AM -6.1237 -66.7225 134° Southeast  Level Estimated
Thu 06:31:00 AM -6.2130 -66.6286 134° Southeast  Level Estimated
Thu 06:32:00 AM -6.3023 -66.5346 134° Southeast  Level Estimated
Thu 06:33:00 AM -6.3915 -66.4405 134° Southeast  Level Estimated
Thu 06:34:00 AM -6.4808 -66.3464 134° Southeast  Level Estimated
Thu 06:35:00 AM -6.5700 -66.2523 134° Southeast  Level Estimated
Thu 06:36:00 AM -6.6592 -66.1582 134° Southeast  Level Estimated
Thu 06:37:00 AM -6.7484 -66.0640 134° Southeast  Level Estimated
Thu 06:38:00 AM -6.8375 -65.9698 134° Southeast  Level Estimated
Thu 06:39:00 AM -6.9267 -65.8755 134° Southeast  Level Estimated
Thu 06:40:00 AM -7.0158 -65.7812 134° Southeast  Level Estimated
Thu 06:41:00 AM -7.1049 -65.6869 134° Southeast  Level Estimated
Thu 06:42:00 AM -7.1940 -65.5926 134° Southeast  Level Estimated
Thu 06:43:00 AM -7.2831 -65.4982 134° Southeast  Level Estimated
Thu 06:44:00 AM -7.3721 -65.4037 134° Southeast  Level Estimated
Thu 06:45:00 AM -7.4612 -65.3092 134° Southeast  Level Estimated
Thu 06:46:00 AM -7.5502 -65.2147 134° Southeast  Level Estimated
Thu 06:47:00 AM -7.6392 -65.1202 134° Southeast  Level Estimated
Thu 06:48:00 AM -7.7281 -65.0256 134° Southeast  Level Estimated
Thu 06:49:00 AM -7.8171 -64.9310 133° Southeast  Level Estimated
Thu 06:50:00 AM -7.9060 -64.8363 133° Southeast  Level Estimated
Thu 06:51:00 AM -7.9949 -64.7416 133° Southeast  Level Estimated
Thu 06:52:00 AM -8.0838 -64.6468 133° Southeast  Level Estimated
Thu 06:53:00 AM -8.1727 -64.5520 133° Southeast  Level Estimated
Thu 06:54:00 AM -8.2615 -64.4572 133° Southeast  Level Estimated
Thu 06:55:00 AM -8.3503 -64.3623 133° Southeast  Level Estimated
Thu 06:56:00 AM -8.4391 -64.2674 133° Southeast  Level Estimated
Thu 06:57:00 AM -8.5279 -64.1725 133° Southeast  Level Estimated
Thu 06:58:00 AM -8.6167 -64.0775 133° Southeast  Level Estimated
Thu 06:59:00 AM -8.7054 -63.9824 133° Southeast  Level Estimated
Thu 07:00:00 AM -8.7941 -63.8873 133° Southeast  Level Estimated
Thu 07:01:00 AM -8.8828 -63.7922 133° Southeast  Level Estimated
Thu 07:02:00 AM -8.9714 -63.6970 133° Southeast  Level Estimated
Thu 07:03:00 AM -9.0601 -63.6017 133° Southeast  Level Estimated
Thu 07:04:00 AM -9.1487 -63.5065 133° Southeast  Level Estimated
Thu 07:05:00 AM -9.2373 -63.4111 133° Southeast  Level Estimated
Thu 07:06:00 AM -9.3258 -63.3157 133° Southeast  Level Estimated
Thu 07:07:00 AM -9.4144 -63.2203 133° Southeast  Level Estimated
Thu 07:08:00 AM -9.5029 -63.1248 133° Southeast  Level Estimated
Thu 07:09:00 AM -9.5913 -63.0293 133° Southeast  Level Estimated
Thu 07:10:00 AM -9.6798 -62.9337 133° Southeast  Level Estimated
Thu 07:11:00 AM -9.7682 -62.8381 133° Southeast  Level Estimated
Thu 07:12:00 AM -9.8566 -62.7424 133° Southeast  Level Estimated
Thu 07:13:00 AM -9.9450 -62.6467 133° Southeast  Level Estimated
Thu 07:14:00 AM -10.0334 -62.5509 133° Southeast  Level Estimated
Thu 07:15:00 AM -10.1217 -62.4551 133° Southeast  Level Estimated
Thu 07:16:00 AM -10.2100 -62.3592 133° Southeast  Level Estimated
Thu 07:17:00 AM -10.2983 -62.2633 133° Southeast  Level Estimated
Thu 07:18:00 AM -10.3865 -62.1673 133° Southeast  Level Estimated
Thu 07:19:00 AM -10.4747 -62.0712 133° Southeast  Level Estimated
Thu 07:20:00 AM -10.5629 -61.9751 133° Southeast  Level Estimated
Thu 07:21:00 AM -10.6510 -61.8790 133° Southeast  Level Estimated
Thu 07:22:00 AM -10.7392 -61.7828 133° Southeast  Level Estimated
Thu 07:23:00 AM -10.8272 -61.6865 133° Southeast  Level Estimated
Thu 07:24:00 AM -10.9153 -61.5902 133° Southeast  Level Estimated
Thu 07:25:00 AM -11.0033 -61.4938 133° Southeast  Level Estimated
Thu 07:26:00 AM -11.0913 -61.3974 133° Southeast  Level Estimated
Thu 07:27:00 AM -11.1793 -61.3008 133° Southeast  Level Estimated
Thu 07:28:00 AM -11.2672 -61.2043 133° Southeast  Level Estimated
Thu 07:29:00 AM -11.3552 -61.1077 133° Southeast  Level Estimated
Thu 07:30:00 AM -11.4430 -61.0110 133° Southeast  Level Estimated
Thu 07:31:00 AM -11.5309 -60.9143 133° Southeast  Level Estimated
Thu 07:32:00 AM -11.6187 -60.8175 133° Southeast  Level Estimated
Thu 07:33:00 AM -11.7065 -60.7206 133° Southeast  Level Estimated
Thu 07:34:00 AM -11.7942 -60.6237 133° Southeast  Level Estimated
Thu 07:35:00 AM -11.8819 -60.5267 133° Southeast  Level Estimated
Thu 07:36:00 AM -11.9696 -60.4297 133° Southeast  Level Estimated
Thu 07:37:00 AM -12.0573 -60.3326 133° Southeast  Level Estimated
Thu 07:38:00 AM -12.1449 -60.2354 133° Southeast  Level Estimated
Thu 07:39:00 AM -12.2325 -60.1382 133° Southeast  Level Estimated
Thu 07:40:00 AM -12.3200 -60.0409 133° Southeast  Level Estimated
Thu 07:41:00 AM -12.4075 -59.9436 133° Southeast  Level Estimated
Thu 07:42:00 AM -12.4950 -59.8461 133° Southeast  Level Estimated
Thu 07:43:00 AM -12.5824 -59.7486 133° Southeast  Level Estimated
Thu 07:44:00 AM -12.6699 -59.6511 133° Southeast  Level Estimated
Thu 07:45:00 AM -12.7572 -59.5534 133° Southeast  Level Estimated
Thu 07:46:00 AM -12.8446 -59.4557 133° Southeast  Level Estimated
Thu 07:47:00 AM -12.9319 -59.3580 133° Southeast  Level Estimated
Thu 07:48:00 AM -13.0191 -59.2602 132° Southeast  Level Estimated
Thu 07:49:00 AM -13.1064 -59.1623 132° Southeast  Level Estimated
Thu 07:50:00 AM -13.1936 -59.0643 132° Southeast  Level Estimated
Thu 07:51:00 AM -13.2807 -58.9663 132° Southeast  Level Estimated
Thu 07:52:00 AM -13.3678 -58.8681 132° Southeast  Level Estimated
Thu 07:53:00 AM -13.4549 -58.7700 132° Southeast  Level Estimated
Thu 07:54:00 AM -13.5419 -58.6717 132° Southeast  Level Estimated
Thu 07:55:00 AM -13.6289 -58.5734 132° Southeast  Level Estimated
Thu 07:56:00 AM -13.7159 -58.4750 132° Southeast  Level Estimated
Thu 07:57:00 AM -13.8028 -58.3765 132° Southeast  Level Estimated
Thu 07:58:00 AM -13.8897 -58.2780 132° Southeast  Level Estimated
Thu 07:59:00 AM -13.9765 -58.1794 132° Southeast  Level Estimated
Thu 08:00:00 AM -14.0633 -58.0807 132° Southeast  Level Estimated
Thu 08:01:00 AM -14.1501 -57.9819 132° Southeast  Level Estimated
Thu 08:02:00 AM -14.2368 -57.8831 132° Southeast  Level Estimated
Thu 08:03:00 AM -14.3235 -57.7842 132° Southeast  Level Estimated
Thu 08:04:00 AM -14.4102 -57.6852 132° Southeast  Level Estimated
Thu 08:05:00 AM -14.4968 -57.5861 132° Southeast  Level Estimated
Thu 08:06:00 AM -14.5833 -57.4870 132° Southeast  Level Estimated
Thu 08:07:00 AM -14.6698 -57.3877 132° Southeast  Level Estimated
Thu 08:08:00 AM -14.7563 -57.2884 132° Southeast  Level Estimated
Thu 08:09:00 AM -14.8427 -57.1891 132° Southeast  Level Estimated
Thu 08:10:00 AM -14.9291 -57.0896 132° Southeast  Level Estimated
Thu 08:11:00 AM -15.0155 -56.9901 132° Southeast  Level Estimated
Thu 08:12:00 AM -15.1018 -56.8904 132° Southeast  Level Estimated
Thu 08:13:00 AM -15.1881 -56.7907 132° Southeast  Level Estimated
Thu 08:14:00 AM -15.2743 -56.6910 132° Southeast  Level Estimated
Thu 08:15:00 AM -15.3604 -56.5911 132° Southeast  Level Estimated
Thu 08:16:00 AM -15.4466 -56.4911 132° Southeast  Level Estimated
Thu 08:17:00 AM -15.5326 -56.3911 132° Southeast  Level Estimated
Thu 08:18:00 AM -15.6187 -56.2910 132° Southeast  Level Estimated
Thu 08:19:00 AM -15.7047 -56.1908 132° Southeast  Level Estimated
Thu 08:20:00 AM -15.7906 -56.0905 132° Southeast  Level Estimated
Thu 08:21:00 AM -15.8765 -55.9901 132° Southeast  Level Estimated
Thu 08:22:00 AM -15.9624 -55.8897 132° Southeast  Level Estimated
Thu 08:23:00 AM -16.0482 -55.7892 132° Southeast  Level Estimated
Thu 08:24:00 AM -16.1340 -55.6885 132° Southeast  Level Estimated
Thu 08:25:00 AM -16.2197 -55.5878 132° Southeast  Level Estimated
Thu 08:26:00 AM -16.3053 -55.4870 132° Southeast  Level Estimated
Thu 08:27:00 AM -16.3910 -55.3861 132° Southeast  Level Estimated
Thu 08:28:00 AM -16.4765 -55.2851 131° Southeast  Level Estimated
Thu 08:29:00 AM -16.5620 -55.1841 131° Southeast  Level Estimated
Thu 08:30:00 AM -16.6475 -55.0829 131° Southeast  Level Estimated
Thu 08:31:00 AM -16.7329 -54.9817 131° Southeast  Level Estimated
Thu 08:32:00 AM -16.8183 -54.8803 131° Southeast  Level Estimated
Thu 08:33:00 AM -16.9037 -54.7789 131° Southeast  Level Estimated
Thu 08:34:00 AM -16.9889 -54.6774 131° Southeast  Level Estimated
Thu 08:35:00 AM -17.0742 -54.5758 131° Southeast  Level Estimated
Thu 08:36:00 AM -17.1593 -54.4740 131° Southeast  Level Estimated
Thu 08:37:00 AM -17.2444 -54.3722 131° Southeast  Level Estimated
Thu 08:38:00 AM -17.3295 -54.2704 131° Southeast  Level Estimated
Thu 08:39:00 AM -17.4145 -54.1684 131° Southeast  Level Estimated
Thu 08:40:00 AM -17.4995 -54.0663 131° Southeast  Level Estimated
Thu 08:41:00 AM -17.5844 -53.9641 131° Southeast  Level Estimated
Thu 08:42:00 AM -17.6693 -53.8618 131° Southeast  Level Estimated
Thu 08:43:00 AM -17.7541 -53.7595 131° Southeast  Level Estimated
Thu 08:44:00 AM -17.8389 -53.6570 131° Southeast  Level Estimated
Thu 08:45:00 AM -17.9236 -53.5544 131° Southeast  Level Estimated
Thu 08:46:00 AM -18.0082 -53.4518 131° Southeast  Level Estimated
Thu 08:47:00 AM -18.0928 -53.3490 131° Southeast  Level Estimated
Thu 08:48:00 AM -18.1773 -53.2461 131° Southeast  Level Estimated
Thu 08:49:00 AM -18.2618 -53.1432 131° Southeast  Level Estimated
Thu 08:50:00 AM -18.3463 -53.0401 131° Southeast  Level Estimated
Thu 08:51:00 AM -18.4307 -52.9370 131° Southeast  Level Estimated
Thu 08:52:00 AM -18.5150 -52.8337 131° Southeast  Level Estimated
Thu 08:53:00 AM -18.5992 -52.7303 131° Southeast  Level Estimated
Thu 08:54:00 AM -18.6835 -52.6269 131° Southeast  Level Estimated
Thu 08:55:00 AM -18.7676 -52.5233 131° Southeast  Level Estimated
Thu 08:56:00 AM -18.8517 -52.4196 131° Southeast  Level Estimated
Thu 08:57:00 AM -18.9349 -52.3169 131° Southeast  Level Estimated
Thu 08:58:00 AM -19.0180 -52.2140 131° Southeast  Level Estimated
Thu 08:59:00 AM -19.1011 -52.1111 131° Southeast  Level Estimated
Thu 09:00:00 AM -19.1841 -52.0080 130° Southeast  Level Estimated
Thu 09:00:15 AM -19.2490 -50.5730 130° Southeast 529 609 33,000  Level FlightAware ADS-B
Thu 09:00:59 AM -19.3100 -50.4770 124° Southeast 529 609 33,000  Level FlightAware ADS-B
Thu 09:01:00 AM -19.2671 -51.9049 130° Southeast  Level Estimated
Thu 09:01:37 AM -19.3610 -50.3960 124° Southeast 528 608 33,000  Level FlightAware ADS-B
Thu 09:02:22 AM -19.4230 -50.2980 124° Southeast 528 608 33,000  Level FlightAware ADS-B
Thu 09:03:15 AM -19.4920 -50.1880 124° Southeast 528 608 33,000  Level FlightAware ADS-B
Thu 09:03:55 AM -19.5460 -50.1020 124° Southeast 527 606 33,000  Level FlightAware ADS-B
Thu 09:04:35 AM -19.6010 -50.0180 125° Southeast 524 603 33,000  Level FlightAware ADS-B
Thu 09:05:15 AM -19.6660 -49.9400 132° Southeast 519 597 33,000  Level FlightAware ADS-B
Thu 09:05:59 AM -19.7400 -49.8590 134° Southeast 518 596 33,000  Level FlightAware ADS-B
Thu 09:06:43 AM -19.8120 -49.7800 134° Southeast 519 597 33,000  Level FlightAware ADS-B
Thu 09:07:24 AM -19.8850 -49.7010 135° Southeast 519 597 33,000  Level FlightAware ADS-B
Thu 09:08:04 AM -19.9520 -49.6280 134° Southeast 519 597 33,000  Level FlightAware ADS-B
Thu 09:08:42 AM -20.0160 -49.5580 134° Southeast 519 597 33,000  Level FlightAware ADS-B
Thu 09:09:24 AM -20.0850 -49.4810 134° Southeast 519 597 33,000  Level FlightAware ADS-B
Thu 09:10:04 AM -20.1490 -49.4110 134° Southeast 520 598 33,000  Level FlightAware ADS-B
Thu 09:10:45 AM -20.2200 -49.3320 134° Southeast 521 600 33,000  Level FlightAware ADS-B
Thu 09:11:28 AM -20.2930 -49.2520 134° Southeast 522 601 33,000  Level FlightAware ADS-B
Thu 09:12:10 AM -20.3640 -49.1730 134° Southeast 521 600 33,000  Level FlightAware ADS-B
Thu 09:12:51 AM -20.4270 -49.1040 134° Southeast 522 601 33,000  Level FlightAware ADS-B
Thu 09:13:36 AM -20.5080 -49.0150 134° Southeast 524 603 33,000  Level FlightAware ADS-B
Thu 09:14:16 AM -20.5770 -48.9430 136° Southeast 527 606 33,000  Level FlightAware ADS-B
Thu 09:15:01 AM -20.6580 -48.8630 137° Southeast 530 610 33,000  Level FlightAware ADS-B
Thu 09:15:41 AM -20.7310 -48.7940 139° Southeast 531 611 33,000  Level FlightAware ADS-B
Thu 09:16:24 AM -20.8090 -48.7200 138° Southeast 531 611 33,000  Level FlightAware ADS-B
Thu 09:17:04 AM -20.8830 -48.6490 138° Southeast 531 611 33,000  Level FlightAware ADS-B
Thu 09:17:41 AM -20.9520 -48.5840 139° Southeast 531 611 33,000  Level FlightAware ADS-B
Thu 09:18:21 AM -21.0250 -48.5140 138° Southeast 531 611 33,000  Level FlightAware ADS-B
Thu 09:19:02 AM -21.1000 -48.4430 139° Southeast 531 611 33,000  Level FlightAware ADS-B
Thu 09:19:46 AM -21.1820 -48.3650 138° Southeast 535 616 33,000  Level FlightAware ADS-B
Thu 09:19:54 AM -21.1970 -48.3500 137° Southeast 535 616 33,000  Level FlightAware ADS-B
Thu 09:21:39 AM -21.3910 -48.1630 138° Southeast 540 621 33,000  Level FlightAware ADS-B
Thu 09:22:21 AM -21.4680 -48.0890 138° Southeast 540 621 33,000  Level FlightAware ADS-B
Thu 09:23:05 AM -21.5500 -48.0100 138° Southeast 539 620 33,000  Level FlightAware ADS-B
Thu 09:23:45 AM -21.6240 -47.9380 138° Southeast 541 623 33,000  Level FlightAware ADS-B
Thu 09:24:25 AM -21.6990 -47.8660 138° Southeast 542 624 33,000  Level FlightAware ADS-B
Thu 09:25:04 AM -21.7460 -47.8190 137° Southeast 542 624 33,000 -647 Level FlightAware ADS-B
Thu 09:26:07 AM -21.8850 -47.6840 138° Southeast 539 620 31,900 -1,313 Descending FlightAware ADS-B
Thu 09:26:40 AM -21.9520 -47.6200 138° Southeast 531 611 30,900 -1,636 Descending FlightAware ADS-B
Thu 09:27:24 AM -22.0270 -47.5460 138° Southeast 521 600 29,800 -1,786 Descending FlightAware ADS-B
Thu 09:28:04 AM -22.1020 -47.4730 138° Southeast 514 592 28,400 -2,053 Descending FlightAware ADS-B
Thu 09:28:40 AM -22.1650 -47.4110 138° Southeast 513 590 27,200 -1,886 Descending FlightAware ADS-B
Thu 09:29:14 AM -22.2240 -47.3540 138° Southeast 508 585 26,200 -1,906 Descending FlightAware ADS-B
Thu 09:30:05 AM -22.3130 -47.2660 138° Southeast 508 585 24,500 -1,935 Descending FlightAware ADS-B
Thu 09:30:47 AM -22.3860 -47.1940 138° Southeast 503 579 23,200 -1,683 Descending FlightAware ADS-B
Thu 09:31:27 AM -22.4540 -47.1280 138° Southeast 495 570 22,200 -1,725 Descending FlightAware ADS-B
Thu 09:32:07 AM -22.5190 -47.0640 138° Southeast 484 557 20,900 -2,000 Descending FlightAware ADS-B
Thu 09:32:51 AM -22.5970 -47.0020 144° Southeast 464 534 19,400 -2,100 Descending FlightAware ADS-B
Thu 09:33:27 AM -22.6650 -46.9620 152° Southeast 454 522 18,100 -1,800 Descending FlightAware ADS-B
Thu 09:34:11 AM -22.7460 -46.9160 152° Southeast 439 505 17,000 -1,500 Descending FlightAware ADS-B
Thu 09:34:51 AM -22.8180 -46.8750 152° Southeast 423 487 16,000 -1,658 Descending FlightAware ADS-B
Thu 09:35:27 AM -22.8810 -46.8400 153° Southeast 410 472 14,900 -2,289 Descending FlightAware ADS-B
Thu 09:36:07 AM -22.9450 -46.8050 153° Southeast 391 450 13,100 -2,143 Descending FlightAware ADS-B
Thu 09:36:51 AM -23.0110 -46.7670 152° Southeast 352 405 11,900 -1,571 Descending FlightAware ADS-B
Thu 09:37:31 AM -23.0690 -46.7350 153° Southeast 321 369 10,900 -1,143 Descending FlightAware ADS-B
Thu 09:38:15 AM -23.1240 -46.7040 153° Southeast 305 351 10,300 -833 Descending FlightAware ADS-B
Thu 09:38:43 AM -23.1580 -46.6810 148° Southeast 301 346 9,900 -750 Descending FlightAware ADS-B
Thu 09:38:55 AM -23.1680 -46.6670 128° Southeast 298 343 9,800 -643 Descending FlightAware ADS-B
Thu 09:39:11 AM -23.1770 -46.6450 114° Southeast 292 336 9,600 -545 Descending FlightAware ADS-B
Thu 09:39:39 AM -23.1900 -46.6080 111° Southeast 273 314 9,400 -471 Descending FlightAware ADS-B
Thu 09:40:02 AM -23.1990 -46.5800 109° East 260 299 9,200 -720 Descending FlightAware ADS-B
Thu 09:40:29 AM -23.2090 -46.5460 108° East 248 285 8,800 -735 Descending FlightAware ADS-B
Thu 09:40:51 AM -23.2100 -46.5210 92° East 245 282 8,600 -563 Descending FlightAware ADS-B
Thu 09:41:33 AM -23.2110 -46.4690 91° East 244 281 8,200 -493 Descending FlightAware ADS-B
Thu 09:42:04 AM -23.2120 -46.4310 92° East 244 281 8,000 -480 Descending FlightAware ADS-B
Thu 09:42:23 AM -23.2120 -46.4080 90° East 241 277 7,800 -735 Descending FlightAware ADS-B
Thu 09:42:53 AM -23.2110 -46.3710 88° East 232 267 7,400 -873 Descending FlightAware ADS-B
Thu 09:43:18 AM -23.2110 -46.3430 90° East 225 259 7,000 -873 Descending FlightAware ADS-B
Thu 09:43:48 AM -23.2110 -46.3100 90° East 221 254 6,600 -764 Descending FlightAware ADS-B
Thu 09:44:13 AM -23.2150 -46.2840 100° East 217 250 6,300 -649 Descending FlightAware ADS-B
Thu 09:44:25 AM -23.2220 -46.2750 130° Southeast 215 247 6,200 -514 Descending FlightAware ADS-B
Thu 09:44:48 AM -23.2370 -46.2550 129° Southeast 201 231 6,000 -556 Descending FlightAware ADS-B
Thu 09:45:19 AM -23.2560 -46.2320 132° Southeast 197 227 5,700 -536 Descending FlightAware ADS-B
Thu 09:45:44 AM -23.2710 -46.2120 129° Southeast 196 226 5,500 -444 Descending FlightAware ADS-B
Thu 09:46:13 AM -23.2880 -46.1900 130° Southeast 189 217 5,300 -500 Descending FlightAware ADS-B
Thu 09:46:44 AM -23.3100 -46.1750 148° Southeast 195 224 5,000 -526 Descending FlightAware ADS-B
Thu 09:47:10 AM -23.3280 -46.1820 200° South 193 222 4,800 -421 Descending FlightAware ADS-B
Thu 09:47:41 AM -23.3520 -46.1980 211° Southwest 189 217 4,600 -102 Descending FlightAware ADS-B
Thu 09:48:09 AM -23.3660 -46.2180 233° Southwest 195 224 4,700 146 Climbing FlightAware ADS-B
Thu 09:48:22 AM -23.3690 -46.2310 256° West 197 227 4,700  Level FlightAware ADS-B
Thu 09:48:46 AM -23.3760 -46.2540 252° West 195 224 4,700  Level FlightAware ADS-B
Thu 09:49:13 AM -23.3820 -46.2790 255° West 195 224 4,700  Level FlightAware ADS-B
Thu 09:49:37 AM -23.3890 -46.3020 252° West 194 223 4,700 -218 Level FlightAware ADS-B
Thu 09:50:08 AM -23.3960 -46.3310 255° West 187 215 4,500 -712 Descending FlightAware ADS-B
Thu 09:50:36 AM -23.4030 -46.3550 252° West 174 200 4,000 -943 Descending FlightAware ADS-B
Thu 09:51:18 AM -23.4120 -46.3880 253° West 147 169 3,400 -792 Descending FlightAware ADS-B
Thu 09:51:29 AM -23.4150 -46.3970 250° West 145 167 3,300 -750 Descending FlightAware ADS-B
Thu 09:51:58 AM -23.4200 -46.4180 255° West 147 169 2,900 -778 Descending FlightAware ADS-B
Thu 09:52:23 AM -23.4250 -46.4360 253° West 144 166 2,600 -737 Descending FlightAware ADS-B
Thu 09:52:55 AM -23.4310 -46.4570 253° West 144 166 2,200 -750 Descending FlightAware ADS-B
Thu 09:53:38 AM -23.4370 -46.4790 253° West 33 38 -3,070 Descending FlightAware ADS-B
Thu 09:53:48 AM -23.4370 -46.4800 270° West 21 24  Level FlightAware ADS-B
Thu 09:54:33 AM -23.4370 -46.4830 270° West 7 8  Level FlightAware ADS-B
Thu 09:55:15 AM -23.4350 -46.4830 360° North 15 17  Level FlightAware ADS-B
Thu 09:55:44 AM -23.4330 -46.4840 335° Northwest 6 7  Level FlightAware ADS-B
Thu 09:56:39 AM -23.4320 -46.4840 360° North 12 14  Level FlightAware ADS-B
Thu 09:59:00 AM -23.4321 -46.4695 129° Southeast  Level Estimated

Login

Don't have an account? Register now (free) for customized features, flight alerts, and more!